sensor_id;sensor_type;location;lat;lon;timestamp;P1;durP1;ratioP1;P2;durP2;ratioP2
55368;SDS011;41247;49.736;8.752;2022-12-10T00:00:02;70.28;;;27.67;;
55368;SDS011;41247;49.736;8.752;2022-12-10T00:03:43;74.43;;;29.17;;
55368;SDS011;41247;49.736;8.752;2022-12-10T00:07:25;57.92;;;25.05;;
55368;SDS011;41247;49.736;8.752;2022-12-10T00:11:06;56.10;;;24.33;;
55368;SDS011;41247;49.736;8.752;2022-12-10T00:14:51;63.88;;;26.00;;
55368;SDS011;41247;49.736;8.752;2022-12-10T00:18:32;61.17;;;25.33;;
55368;SDS011;41247;49.736;8.752;2022-12-10T00:22:14;58.38;;;26.00;;
55368;SDS011;41247;49.736;8.752;2022-12-10T00:25:54;62.40;;;25.65;;
55368;SDS011;41247;49.736;8.752;2022-12-10T00:29:51;59.65;;;25.80;;
55368;SDS011;41247;49.736;8.752;2022-12-10T00:33:32;64.80;;;26.33;;
55368;SDS011;41247;49.736;8.752;2022-12-10T00:37:14;71.55;;;28.67;;
55368;SDS011;41247;49.736;8.752;2022-12-10T00:40:54;72.00;;;28.17;;
55368;SDS011;41247;49.736;8.752;2022-12-10T00:44:35;79.57;;;29.65;;
55368;SDS011;41247;49.736;8.752;2022-12-10T00:48:16;79.80;;;30.00;;
55368;SDS011;41247;49.736;8.752;2022-12-10T00:51:56;82.88;;;30.52;;
55368;SDS011;41247;49.736;8.752;2022-12-10T00:55:37;81.00;;;30.70;;
55368;SDS011;41247;49.736;8.752;2022-12-10T00:59:17;81.47;;;30.73;;
55368;SDS011;41247;49.736;8.752;2022-12-10T01:02:59;85.50;;;30.85;;
55368;SDS011;41247;49.736;8.752;2022-12-10T01:06:50;93.45;;;33.15;;
55368;SDS011;41247;49.736;8.752;2022-12-10T01:10:33;88.97;;;32.72;;
55368;SDS011;41247;49.736;8.752;2022-12-10T01:14:15;95.47;;;33.55;;
55368;SDS011;41247;49.736;8.752;2022-12-10T01:18:04;90.90;;;33.35;;
55368;SDS011;41247;49.736;8.752;2022-12-10T01:21:45;99.35;;;33.88;;
55368;SDS011;41247;49.736;8.752;2022-12-10T01:25:29;91.60;;;33.65;;
55368;SDS011;41247;49.736;8.752;2022-12-10T01:29:10;94.93;;;32.88;;
55368;SDS011;41247;49.736;8.752;2022-12-10T01:32:51;98.82;;;33.63;;
55368;SDS011;41247;49.736;8.752;2022-12-10T01:36:33;95.03;;;33.53;;
55368;SDS011;41247;49.736;8.752;2022-12-10T01:40:17;96.03;;;32.88;;
55368;SDS011;41247;49.736;8.752;2022-12-10T01:43:59;95.97;;;33.28;;
55368;SDS011;41247;49.736;8.752;2022-12-10T01:48:05;96.15;;;33.20;;
55368;SDS011;41247;49.736;8.752;2022-12-10T01:51:47;97.97;;;33.47;;
55368;SDS011;41247;49.736;8.752;2022-12-10T01:55:44;104.05;;;32.88;;
55368;SDS011;41247;49.736;8.752;2022-12-10T01:59:30;99.45;;;33.67;;
55368;SDS011;41247;49.736;8.752;2022-12-10T02:03:19;92.53;;;32.47;;
55368;SDS011;41247;49.736;8.752;2022-12-10T02:08:27;95.22;;;32.28;;
55368;SDS011;41247;49.736;8.752;2022-12-10T02:16:16;95.05;;;32.92;;
55368;SDS011;41247;49.736;8.752;2022-12-10T02:20:04;91.93;;;32.53;;
55368;SDS011;41247;49.736;8.752;2022-12-10T02:24:00;95.20;;;32.78;;
55368;SDS011;41247;49.736;8.752;2022-12-10T02:31:32;94.78;;;31.08;;
55368;SDS011;41247;49.736;8.752;2022-12-10T02:35:16;96.55;;;31.30;;
55368;SDS011;41247;49.736;8.752;2022-12-10T02:39:03;97.18;;;32.08;;
55368;SDS011;41247;49.736;8.752;2022-12-10T02:42:51;93.97;;;32.05;;
55368;SDS011;41247;49.736;8.752;2022-12-10T02:46:32;99.07;;;33.17;;
55368;SDS011;41247;49.736;8.752;2022-12-10T02:50:14;98.03;;;32.20;;
55368;SDS011;41247;49.736;8.752;2022-12-10T02:53:59;107.47;;;34.20;;
55368;SDS011;41247;49.736;8.752;2022-12-10T02:57:59;101.93;;;33.35;;
55368;SDS011;41247;49.736;8.752;2022-12-10T03:02:02;103.40;;;32.55;;
55368;SDS011;41247;49.736;8.752;2022-12-10T03:06:08;106.18;;;32.85;;
55368;SDS011;41247;49.736;8.752;2022-12-10T03:10:24;101.82;;;31.05;;
55368;SDS011;41247;49.736;8.752;2022-12-10T03:14:30;101.90;;;31.65;;
55368;SDS011;41247;49.736;8.752;2022-12-10T03:18:12;96.75;;;32.05;;
55368;SDS011;41247;49.736;8.752;2022-12-10T03:21:57;103.65;;;33.42;;
55368;SDS011;41247;49.736;8.752;2022-12-10T03:25:38;104.38;;;33.35;;
55368;SDS011;41247;49.736;8.752;2022-12-10T03:29:21;103.68;;;33.75;;
55368;SDS011;41247;49.736;8.752;2022-12-10T03:33:10;106.85;;;33.88;;
55368;SDS011;41247;49.736;8.752;2022-12-10T03:36:51;107.78;;;33.47;;
55368;SDS011;41247;49.736;8.752;2022-12-10T03:40:33;98.10;;;32.50;;
55368;SDS011;41247;49.736;8.752;2022-12-10T03:44:19;105.93;;;34.35;;
55368;SDS011;41247;49.736;8.752;2022-12-10T03:48:10;93.88;;;32.75;;
55368;SDS011;41247;49.736;8.752;2022-12-10T03:51:51;94.03;;;31.60;;
55368;SDS011;41247;49.736;8.752;2022-12-10T03:55:32;90.50;;;31.15;;
55368;SDS011;41247;49.736;8.752;2022-12-10T03:59:12;95.25;;;31.95;;
55368;SDS011;41247;49.736;8.752;2022-12-10T04:02:53;89.53;;;31.90;;
55368;SDS011;41247;49.736;8.752;2022-12-10T04:06:33;99.80;;;33.08;;
55368;SDS011;41247;49.736;8.752;2022-12-10T04:10:17;90.90;;;32.20;;
55368;SDS011;41247;49.736;8.752;2022-12-10T04:13:58;96.43;;;31.75;;
55368;SDS011;41247;49.736;8.752;2022-12-10T04:17:39;91.60;;;31.67;;
55368;SDS011;41247;49.736;8.752;2022-12-10T04:21:20;85.72;;;31.52;;
55368;SDS011;41247;49.736;8.752;2022-12-10T04:25:00;85.28;;;30.40;;
55368;SDS011;41247;49.736;8.752;2022-12-10T04:28:41;85.50;;;31.05;;
55368;SDS011;41247;49.736;8.752;2022-12-10T04:32:23;90.55;;;32.17;;
55368;SDS011;41247;49.736;8.752;2022-12-10T04:36:06;88.30;;;31.92;;
55368;SDS011;41247;49.736;8.752;2022-12-10T04:39:47;82.60;;;30.48;;
55368;SDS011;41247;49.736;8.752;2022-12-10T04:43:30;85.30;;;32.95;;
55368;SDS011;41247;49.736;8.752;2022-12-10T04:47:10;84.82;;;31.13;;
55368;SDS011;41247;49.736;8.752;2022-12-10T04:50:52;83.97;;;30.60;;
55368;SDS011;41247;49.736;8.752;2022-12-10T04:54:33;91.60;;;32.60;;
55368;SDS011;41247;49.736;8.752;2022-12-10T04:58:13;83.25;;;31.45;;
55368;SDS011;41247;49.736;8.752;2022-12-10T05:01:54;85.82;;;31.35;;
55368;SDS011;41247;49.736;8.752;2022-12-10T05:05:34;84.10;;;31.23;;
55368;SDS011;41247;49.736;8.752;2022-12-10T05:09:16;88.25;;;31.88;;
55368;SDS011;41247;49.736;8.752;2022-12-10T05:12:57;85.50;;;31.52;;
55368;SDS011;41247;49.736;8.752;2022-12-10T05:16:37;80.22;;;30.50;;
55368;SDS011;41247;49.736;8.752;2022-12-10T05:20:18;89.38;;;30.95;;
55368;SDS011;41247;49.736;8.752;2022-12-10T05:23:59;84.90;;;31.75;;
55368;SDS011;41247;49.736;8.752;2022-12-10T05:27:39;82.95;;;31.00;;
55368;SDS011;41247;49.736;8.752;2022-12-10T05:31:21;83.80;;;30.75;;
55368;SDS011;41247;49.736;8.752;2022-12-10T05:35:07;79.15;;;29.65;;
55368;SDS011;41247;49.736;8.752;2022-12-10T05:38:48;83.13;;;31.05;;
55368;SDS011;41247;49.736;8.752;2022-12-10T05:42:29;78.25;;;30.75;;
55368;SDS011;41247;49.736;8.752;2022-12-10T05:46:11;81.20;;;29.95;;
55368;SDS011;41247;49.736;8.752;2022-12-10T05:49:58;83.60;;;29.95;;
55368;SDS011;41247;49.736;8.752;2022-12-10T05:53:40;76.47;;;30.15;;
55368;SDS011;41247;49.736;8.752;2022-12-10T05:58:19;78.47;;;30.38;;
55368;SDS011;41247;49.736;8.752;2022-12-10T06:02:00;78.20;;;30.15;;
55368;SDS011;41247;49.736;8.752;2022-12-10T06:05:40;76.05;;;29.88;;
55368;SDS011;41247;49.736;8.752;2022-12-10T06:09:21;80.75;;;30.13;;
55368;SDS011;41247;49.736;8.752;2022-12-10T06:13:03;73.63;;;28.92;;
55368;SDS011;41247;49.736;8.752;2022-12-10T06:16:45;77.30;;;30.05;;
55368;SDS011;41247;49.736;8.752;2022-12-10T06:20:25;72.30;;;29.73;;
55368;SDS011;41247;49.736;8.752;2022-12-10T06:24:06;78.18;;;30.42;;
55368;SDS011;41247;49.736;8.752;2022-12-10T06:28:28;79.07;;;29.45;;
55368;SDS011;41247;49.736;8.752;2022-12-10T06:32:09;79.30;;;29.95;;
55368;SDS011;41247;49.736;8.752;2022-12-10T06:35:49;72.85;;;29.25;;
55368;SDS011;41247;49.736;8.752;2022-12-10T06:39:30;75.90;;;29.17;;
55368;SDS011;41247;49.736;8.752;2022-12-10T06:43:11;73.55;;;29.30;;
55368;SDS011;41247;49.736;8.752;2022-12-10T06:46:51;70.85;;;28.77;;
55368;SDS011;41247;49.736;8.752;2022-12-10T06:50:32;78.60;;;30.45;;
55368;SDS011;41247;49.736;8.752;2022-12-10T06:54:16;78.30;;;31.15;;
55368;SDS011;41247;49.736;8.752;2022-12-10T07:02:52;75.75;;;30.48;;
55368;SDS011;41247;49.736;8.752;2022-12-10T07:06:34;68.05;;;28.63;;
55368;SDS011;41247;49.736;8.752;2022-12-10T07:10:15;68.65;;;28.05;;
55368;SDS011;41247;49.736;8.752;2022-12-10T07:14:33;69.40;;;28.33;;
55368;SDS011;41247;49.736;8.752;2022-12-10T07:18:14;72.82;;;28.95;;
55368;SDS011;41247;49.736;8.752;2022-12-10T07:21:54;72.25;;;29.52;;
55368;SDS011;41247;49.736;8.752;2022-12-10T07:25:35;70.22;;;28.95;;
55368;SDS011;41247;49.736;8.752;2022-12-10T07:29:17;75.80;;;30.42;;
55368;SDS011;41247;49.736;8.752;2022-12-10T07:33:00;76.10;;;30.40;;
55368;SDS011;41247;49.736;8.752;2022-12-10T07:36:41;74.60;;;30.88;;
55368;SDS011;41247;49.736;8.752;2022-12-10T07:40:37;68.72;;;29.33;;
55368;SDS011;41247;49.736;8.752;2022-12-10T07:44:25;73.93;;;30.20;;
55368;SDS011;41247;49.736;8.752;2022-12-10T07:48:12;70.00;;;29.83;;
55368;SDS011;41247;49.736;8.752;2022-12-10T07:56:31;71.95;;;30.75;;
55368;SDS011;41247;49.736;8.752;2022-12-10T08:00:11;85.00;;;31.73;;
55368;SDS011;41247;49.736;8.752;2022-12-10T08:03:53;75.82;;;30.15;;
55368;SDS011;41247;49.736;8.752;2022-12-10T08:07:35;74.85;;;30.00;;
55368;SDS011;41247;49.736;8.752;2022-12-10T08:11:16;81.88;;;31.33;;
55368;SDS011;41247;49.736;8.752;2022-12-10T08:14:59;70.30;;;29.30;;
55368;SDS011;41247;49.736;8.752;2022-12-10T08:18:41;74.97;;;30.30;;
55368;SDS011;41247;49.736;8.752;2022-12-10T08:22:22;72.53;;;28.48;;
55368;SDS011;41247;49.736;8.752;2022-12-10T08:26:06;71.00;;;29.48;;
55368;SDS011;41247;49.736;8.752;2022-12-10T08:29:50;70.72;;;28.80;;
55368;SDS011;41247;49.736;8.752;2022-12-10T08:33:32;75.13;;;28.95;;
55368;SDS011;41247;49.736;8.752;2022-12-10T08:37:13;72.22;;;29.98;;
55368;SDS011;41247;49.736;8.752;2022-12-10T08:40:55;66.20;;;28.33;;
55368;SDS011;41247;49.736;8.752;2022-12-10T08:44:36;63.47;;;28.10;;
55368;SDS011;41247;49.736;8.752;2022-12-10T08:48:17;65.72;;;28.23;;
55368;SDS011;41247;49.736;8.752;2022-12-10T08:51:58;65.30;;;27.60;;
55368;SDS011;41247;49.736;8.752;2022-12-10T08:55:39;63.78;;;28.05;;
55368;SDS011;41247;49.736;8.752;2022-12-10T08:59:20;63.50;;;27.65;;
55368;SDS011;41247;49.736;8.752;2022-12-10T09:03:02;58.47;;;25.80;;
55368;SDS011;41247;49.736;8.752;2022-12-10T09:06:43;60.45;;;26.73;;
55368;SDS011;41247;49.736;8.752;2022-12-10T09:10:27;66.05;;;28.00;;
55368;SDS011;41247;49.736;8.752;2022-12-10T09:14:07;60.83;;;26.92;;
55368;SDS011;41247;49.736;8.752;2022-12-10T09:17:48;58.72;;;25.70;;
55368;SDS011;41247;49.736;8.752;2022-12-10T09:21:28;52.58;;;25.08;;
55368;SDS011;41247;49.736;8.752;2022-12-10T09:25:09;53.72;;;24.77;;
55368;SDS011;41247;49.736;8.752;2022-12-10T09:28:50;51.58;;;24.52;;
55368;SDS011;41247;49.736;8.752;2022-12-10T09:32:31;51.83;;;24.15;;
55368;SDS011;41247;49.736;8.752;2022-12-10T09:36:13;52.35;;;24.60;;
55368;SDS011;41247;49.736;8.752;2022-12-10T09:39:54;57.78;;;24.13;;
55368;SDS011;41247;49.736;8.752;2022-12-10T09:47:15;49.28;;;23.63;;
55368;SDS011;41247;49.736;8.752;2022-12-10T09:51:13;51.25;;;23.27;;
55368;SDS011;41247;49.736;8.752;2022-12-10T09:55:04;52.15;;;23.80;;
55368;SDS011;41247;49.736;8.752;2022-12-10T09:58:59;52.42;;;23.92;;
55368;SDS011;41247;49.736;8.752;2022-12-10T10:02:46;49.63;;;23.45;;
55368;SDS011;41247;49.736;8.752;2022-12-10T10:06:28;55.17;;;24.65;;
55368;SDS011;41247;49.736;8.752;2022-12-10T10:10:19;52.67;;;24.23;;
55368;SDS011;41247;49.736;8.752;2022-12-10T10:14:12;50.92;;;23.75;;
55368;SDS011;41247;49.736;8.752;2022-12-10T10:22:05;37.42;;;17.98;;
55368;SDS011;41247;49.736;8.752;2022-12-10T10:25:48;55.58;;;24.73;;
55368;SDS011;41247;49.736;8.752;2022-12-10T10:29:29;47.63;;;22.98;;
55368;SDS011;41247;49.736;8.752;2022-12-10T10:33:11;49.30;;;23.25;;
55368;SDS011;41247;49.736;8.752;2022-12-10T10:40:40;49.45;;;22.70;;
55368;SDS011;41247;49.736;8.752;2022-12-10T10:44:24;50.00;;;24.35;;
55368;SDS011;41247;49.736;8.752;2022-12-10T10:48:15;53.83;;;24.77;;
55368;SDS011;41247;49.736;8.752;2022-12-10T10:52:06;51.55;;;23.77;;
55368;SDS011;41247;49.736;8.752;2022-12-10T10:56:04;52.80;;;24.20;;
55368;SDS011;41247;49.736;8.752;2022-12-10T10:59:52;48.25;;;25.08;;
55368;SDS011;41247;49.736;8.752;2022-12-10T11:03:36;49.10;;;23.90;;
55368;SDS011;41247;49.736;8.752;2022-12-10T11:07:34;44.28;;;22.17;;
55368;SDS011;41247;49.736;8.752;2022-12-10T11:11:22;42.03;;;21.77;;
55368;SDS011;41247;49.736;8.752;2022-12-10T11:19:03;42.72;;;20.58;;
55368;SDS011;41247;49.736;8.752;2022-12-10T11:22:51;38.88;;;20.05;;
55368;SDS011;41247;49.736;8.752;2022-12-10T11:26:43;36.50;;;19.73;;
55368;SDS011;41247;49.736;8.752;2022-12-10T11:30:32;38.60;;;20.15;;
55368;SDS011;41247;49.736;8.752;2022-12-10T11:38:26;41.70;;;20.37;;
55368;SDS011;41247;49.736;8.752;2022-12-10T11:42:30;39.75;;;20.05;;
55368;SDS011;41247;49.736;8.752;2022-12-10T11:46:54;34.95;;;19.02;;
55368;SDS011;41247;49.736;8.752;2022-12-10T11:50:52;41.25;;;21.60;;
55368;SDS011;41247;49.736;8.752;2022-12-10T12:03:03;36.38;;;20.27;;
55368;SDS011;41247;49.736;8.752;2022-12-10T12:15:51;39.20;;;21.25;;
55368;SDS011;41247;49.736;8.752;2022-12-10T12:19:36;38.50;;;19.60;;
55368;SDS011;41247;49.736;8.752;2022-12-10T12:27:39;36.60;;;18.50;;
55368;SDS011;41247;49.736;8.752;2022-12-10T12:31:29;39.10;;;20.80;;
55368;SDS011;41247;49.736;8.752;2022-12-10T12:43:23;38.92;;;20.98;;
55368;SDS011;41247;49.736;8.752;2022-12-10T12:51:36;39.88;;;20.38;;
55368;SDS011;41247;49.736;8.752;2022-12-10T12:55:29;35.78;;;19.65;;
55368;SDS011;41247;49.736;8.752;2022-12-10T13:03:36;38.17;;;19.83;;
55368;SDS011;41247;49.736;8.752;2022-12-10T13:14:55;39.80;;;21.05;;
55368;SDS011;41247;49.736;8.752;2022-12-10T13:23:33;43.25;;;21.83;;
55368;SDS011;41247;49.736;8.752;2022-12-10T13:35:15;43.67;;;20.95;;
55368;SDS011;41247;49.736;8.752;2022-12-10T13:42:55;39.95;;;21.45;;
55368;SDS011;41247;49.736;8.752;2022-12-10T13:47:20;52.58;;;25.25;;
55368;SDS011;41247;49.736;8.752;2022-12-10T14:07:22;38.15;;;19.48;;
55368;SDS011;41247;49.736;8.752;2022-12-10T14:11:07;34.47;;;19.00;;
55368;SDS011;41247;49.736;8.752;2022-12-10T14:15:03;34.55;;;18.70;;
55368;SDS011;41247;49.736;8.752;2022-12-10T14:18:55;38.33;;;19.38;;
55368;SDS011;41247;49.736;8.752;2022-12-10T14:22:55;36.47;;;19.17;;
55368;SDS011;41247;49.736;8.752;2022-12-10T14:26:37;35.20;;;18.95;;
55368;SDS011;41247;49.736;8.752;2022-12-10T14:35:05;36.70;;;18.92;;
55368;SDS011;41247;49.736;8.752;2022-12-10T14:38:54;37.22;;;19.38;;
55368;SDS011;41247;49.736;8.752;2022-12-10T14:42:39;36.20;;;18.75;;
55368;SDS011;41247;49.736;8.752;2022-12-10T14:46:28;34.17;;;18.52;;
55368;SDS011;41247;49.736;8.752;2022-12-10T14:50:12;36.08;;;18.40;;
55368;SDS011;41247;49.736;8.752;2022-12-10T14:57:38;32.47;;;16.17;;
55368;SDS011;41247;49.736;8.752;2022-12-10T15:01:29;32.55;;;16.50;;
55368;SDS011;41247;49.736;8.752;2022-12-10T15:05:21;30.67;;;16.45;;
55368;SDS011;41247;49.736;8.752;2022-12-10T15:09:06;33.63;;;17.15;;
55368;SDS011;41247;49.736;8.752;2022-12-10T15:13:02;35.50;;;17.75;;
55368;SDS011;41247;49.736;8.752;2022-12-10T15:16:45;36.15;;;19.33;;
55368;SDS011;41247;49.736;8.752;2022-12-10T15:20:29;33.80;;;17.05;;
55368;SDS011;41247;49.736;8.752;2022-12-10T15:24:36;30.55;;;16.60;;
55368;SDS011;41247;49.736;8.752;2022-12-10T15:28:22;29.95;;;15.63;;
55368;SDS011;41247;49.736;8.752;2022-12-10T15:32:27;36.33;;;17.27;;
55368;SDS011;41247;49.736;8.752;2022-12-10T15:36:11;30.30;;;15.82;;
55368;SDS011;41247;49.736;8.752;2022-12-10T15:40:04;42.00;;;18.67;;
55368;SDS011;41247;49.736;8.752;2022-12-10T15:44:01;35.42;;;18.15;;
55368;SDS011;41247;49.736;8.752;2022-12-10T15:47:45;38.92;;;18.48;;
55368;SDS011;41247;49.736;8.752;2022-12-10T15:51:26;46.67;;;19.67;;
55368;SDS011;41247;49.736;8.752;2022-12-10T15:55:07;44.95;;;20.70;;
55368;SDS011;41247;49.736;8.752;2022-12-10T15:58:50;45.28;;;19.25;;
55368;SDS011;41247;49.736;8.752;2022-12-10T16:02:37;44.85;;;21.35;;
55368;SDS011;41247;49.736;8.752;2022-12-10T16:06:37;49.08;;;21.75;;
55368;SDS011;41247;49.736;8.752;2022-12-10T16:10:19;45.25;;;21.25;;
55368;SDS011;41247;49.736;8.752;2022-12-10T16:14:02;40.47;;;21.17;;
55368;SDS011;41247;49.736;8.752;2022-12-10T16:17:43;38.50;;;19.55;;
55368;SDS011;41247;49.736;8.752;2022-12-10T16:21:24;39.40;;;20.02;;
55368;SDS011;41247;49.736;8.752;2022-12-10T16:25:05;42.75;;;21.70;;
55368;SDS011;41247;49.736;8.752;2022-12-10T16:28:46;45.13;;;23.27;;
55368;SDS011;41247;49.736;8.752;2022-12-10T16:32:28;45.58;;;24.63;;
55368;SDS011;41247;49.736;8.752;2022-12-10T16:36:10;38.00;;;19.98;;
55368;SDS011;41247;49.736;8.752;2022-12-10T16:39:51;40.30;;;20.48;;
55368;SDS011;41247;49.736;8.752;2022-12-10T16:43:32;49.08;;;25.23;;
55368;SDS011;41247;49.736;8.752;2022-12-10T16:47:12;41.25;;;20.95;;
55368;SDS011;41247;49.736;8.752;2022-12-10T16:50:53;46.05;;;24.83;;
55368;SDS011;41247;49.736;8.752;2022-12-10T16:54:38;39.58;;;21.30;;
55368;SDS011;41247;49.736;8.752;2022-12-10T16:58:19;42.28;;;18.83;;
55368;SDS011;41247;49.736;8.752;2022-12-10T17:01:59;43.95;;;23.38;;
55368;SDS011;41247;49.736;8.752;2022-12-10T17:05:40;45.75;;;23.75;;
55368;SDS011;41247;49.736;8.752;2022-12-10T17:09:21;47.20;;;22.80;;
55368;SDS011;41247;49.736;8.752;2022-12-10T17:13:02;51.53;;;23.42;;
55368;SDS011;41247;49.736;8.752;2022-12-10T17:16:42;45.10;;;23.25;;
55368;SDS011;41247;49.736;8.752;2022-12-10T17:20:23;51.45;;;25.17;;
55368;SDS011;41247;49.736;8.752;2022-12-10T17:24:04;49.45;;;25.58;;
55368;SDS011;41247;49.736;8.752;2022-12-10T17:27:45;47.78;;;24.30;;
55368;SDS011;41247;49.736;8.752;2022-12-10T17:31:25;43.05;;;22.50;;
55368;SDS011;41247;49.736;8.752;2022-12-10T17:35:06;40.95;;;20.40;;
55368;SDS011;41247;49.736;8.752;2022-12-10T17:38:48;41.53;;;20.50;;
55368;SDS011;41247;49.736;8.752;2022-12-10T17:42:29;44.55;;;22.50;;
55368;SDS011;41247;49.736;8.752;2022-12-10T17:46:10;42.47;;;21.17;;
55368;SDS011;41247;49.736;8.752;2022-12-10T17:49:52;41.38;;;21.30;;
55368;SDS011;41247;49.736;8.752;2022-12-10T17:53:32;39.95;;;20.70;;
55368;SDS011;41247;49.736;8.752;2022-12-10T17:57:14;42.58;;;20.88;;
55368;SDS011;41247;49.736;8.752;2022-12-10T18:01:01;43.25;;;20.92;;
55368;SDS011;41247;49.736;8.752;2022-12-10T18:04:41;43.65;;;20.75;;
55368;SDS011;41247;49.736;8.752;2022-12-10T18:08:22;40.38;;;20.92;;
55368;SDS011;41247;49.736;8.752;2022-12-10T18:12:02;45.75;;;21.55;;
55368;SDS011;41247;49.736;8.752;2022-12-10T18:15:43;41.53;;;20.90;;
55368;SDS011;41247;49.736;8.752;2022-12-10T18:19:24;42.15;;;20.73;;
55368;SDS011;41247;49.736;8.752;2022-12-10T18:23:06;40.22;;;20.55;;
55368;SDS011;41247;49.736;8.752;2022-12-10T18:26:49;41.67;;;20.63;;
55368;SDS011;41247;49.736;8.752;2022-12-10T18:30:30;45.15;;;21.55;;
55368;SDS011;41247;49.736;8.752;2022-12-10T18:34:11;42.72;;;20.95;;
55368;SDS011;41247;49.736;8.752;2022-12-10T18:37:54;43.45;;;19.98;;
55368;SDS011;41247;49.736;8.752;2022-12-10T18:41:34;46.10;;;22.80;;
55368;SDS011;41247;49.736;8.752;2022-12-10T18:45:16;47.35;;;22.70;;
55368;SDS011;41247;49.736;8.752;2022-12-10T18:48:58;51.30;;;24.33;;
55368;SDS011;41247;49.736;8.752;2022-12-10T18:52:38;47.72;;;24.08;;
55368;SDS011;41247;49.736;8.752;2022-12-10T18:56:23;48.50;;;21.65;;
55368;SDS011;41247;49.736;8.752;2022-12-10T19:00:09;44.08;;;22.48;;
55368;SDS011;41247;49.736;8.752;2022-12-10T19:03:57;51.50;;;23.05;;
55368;SDS011;41247;49.736;8.752;2022-12-10T19:07:38;45.47;;;23.27;;
55368;SDS011;41247;49.736;8.752;2022-12-10T19:11:19;43.70;;;20.77;;
55368;SDS011;41247;49.736;8.752;2022-12-10T19:15:00;42.65;;;20.85;;
55368;SDS011;41247;49.736;8.752;2022-12-10T19:18:41;37.53;;;19.10;;
55368;SDS011;41247;49.736;8.752;2022-12-10T19:22:22;37.55;;;18.17;;
55368;SDS011;41247;49.736;8.752;2022-12-10T19:26:02;35.10;;;17.77;;
55368;SDS011;41247;49.736;8.752;2022-12-10T19:29:45;38.22;;;18.85;;
55368;SDS011;41247;49.736;8.752;2022-12-10T19:33:25;38.10;;;18.33;;
55368;SDS011;41247;49.736;8.752;2022-12-10T19:37:08;34.88;;;17.58;;
55368;SDS011;41247;49.736;8.752;2022-12-10T19:40:49;42.15;;;18.75;;
55368;SDS011;41247;49.736;8.752;2022-12-10T19:44:30;35.33;;;18.02;;
55368;SDS011;41247;49.736;8.752;2022-12-10T19:48:10;37.13;;;17.52;;
55368;SDS011;41247;49.736;8.752;2022-12-10T19:51:51;33.53;;;16.90;;
55368;SDS011;41247;49.736;8.752;2022-12-10T19:55:32;36.50;;;18.92;;
55368;SDS011;41247;49.736;8.752;2022-12-10T19:59:16;37.15;;;17.65;;
55368;SDS011;41247;49.736;8.752;2022-12-10T20:02:58;33.28;;;17.17;;
55368;SDS011;41247;49.736;8.752;2022-12-10T20:06:39;32.63;;;16.55;;
55368;SDS011;41247;49.736;8.752;2022-12-10T20:10:24;36.80;;;17.30;;
55368;SDS011;41247;49.736;8.752;2022-12-10T20:14:08;36.83;;;17.77;;
55368;SDS011;41247;49.736;8.752;2022-12-10T20:17:49;36.30;;;18.58;;
55368;SDS011;41247;49.736;8.752;2022-12-10T20:21:31;35.25;;;17.90;;
55368;SDS011;41247;49.736;8.752;2022-12-10T20:25:12;32.38;;;16.73;;
55368;SDS011;41247;49.736;8.752;2022-12-10T20:28:54;37.17;;;17.92;;
55368;SDS011;41247;49.736;8.752;2022-12-10T20:32:34;36.10;;;18.10;;
55368;SDS011;41247;49.736;8.752;2022-12-10T20:36:25;39.15;;;18.50;;
55368;SDS011;41247;49.736;8.752;2022-12-10T20:40:06;41.00;;;18.92;;
55368;SDS011;41247;49.736;8.752;2022-12-10T20:43:53;35.97;;;17.67;;
55368;SDS011;41247;49.736;8.752;2022-12-10T20:47:34;31.80;;;16.00;;
55368;SDS011;41247;49.736;8.752;2022-12-10T20:51:15;30.15;;;15.68;;
55368;SDS011;41247;49.736;8.752;2022-12-10T20:54:56;32.22;;;17.05;;
55368;SDS011;41247;49.736;8.752;2022-12-10T20:58:37;33.17;;;15.40;;
55368;SDS011;41247;49.736;8.752;2022-12-10T21:02:18;28.52;;;14.95;;
55368;SDS011;41247;49.736;8.752;2022-12-10T21:10:01;35.85;;;17.50;;
55368;SDS011;41247;49.736;8.752;2022-12-10T21:13:43;39.17;;;19.98;;
55368;SDS011;41247;49.736;8.752;2022-12-10T21:17:32;37.95;;;19.25;;
55368;SDS011;41247;49.736;8.752;2022-12-10T21:21:12;40.63;;;19.75;;
55368;SDS011;41247;49.736;8.752;2022-12-10T21:25:01;40.72;;;18.95;;
55368;SDS011;41247;49.736;8.752;2022-12-10T21:28:42;37.70;;;19.42;;
55368;SDS011;41247;49.736;8.752;2022-12-10T21:32:23;40.63;;;19.90;;
55368;SDS011;41247;49.736;8.752;2022-12-10T21:39:51;40.30;;;20.23;;
55368;SDS011;41247;49.736;8.752;2022-12-10T21:43:31;46.10;;;21.35;;
55368;SDS011;41247;49.736;8.752;2022-12-10T21:47:12;43.55;;;20.20;;
55368;SDS011;41247;49.736;8.752;2022-12-10T21:50:56;39.33;;;19.67;;
55368;SDS011;41247;49.736;8.752;2022-12-10T21:54:41;42.13;;;20.30;;
55368;SDS011;41247;49.736;8.752;2022-12-10T21:58:22;39.63;;;19.70;;
55368;SDS011;41247;49.736;8.752;2022-12-10T22:02:03;41.20;;;20.02;;
55368;SDS011;41247;49.736;8.752;2022-12-10T22:05:44;37.80;;;18.92;;
55368;SDS011;41247;49.736;8.752;2022-12-10T22:09:25;41.10;;;20.15;;
55368;SDS011;41247;49.736;8.752;2022-12-10T22:13:05;42.53;;;21.00;;
55368;SDS011;41247;49.736;8.752;2022-12-10T22:16:46;46.47;;;21.70;;
55368;SDS011;41247;49.736;8.752;2022-12-10T22:20:27;45.22;;;21.38;;
55368;SDS011;41247;49.736;8.752;2022-12-10T22:24:07;44.08;;;21.55;;
55368;SDS011;41247;49.736;8.752;2022-12-10T22:27:48;50.22;;;22.67;;
55368;SDS011;41247;49.736;8.752;2022-12-10T22:31:29;41.97;;;20.60;;
55368;SDS011;41247;49.736;8.752;2022-12-10T22:35:10;45.13;;;20.65;;
55368;SDS011;41247;49.736;8.752;2022-12-10T22:38:51;40.65;;;19.70;;
55368;SDS011;41247;49.736;8.752;2022-12-10T22:42:35;46.20;;;20.85;;
55368;SDS011;41247;49.736;8.752;2022-12-10T22:46:19;47.75;;;21.85;;
55368;SDS011;41247;49.736;8.752;2022-12-10T22:50:00;43.95;;;21.20;;
55368;SDS011;41247;49.736;8.752;2022-12-10T22:53:42;44.58;;;20.85;;
55368;SDS011;41247;49.736;8.752;2022-12-10T22:57:23;37.20;;;18.38;;
55368;SDS011;41247;49.736;8.752;2022-12-10T23:01:03;41.97;;;20.15;;
55368;SDS011;41247;49.736;8.752;2022-12-10T23:04:49;43.67;;;20.30;;
55368;SDS011;41247;49.736;8.752;2022-12-10T23:08:31;45.63;;;20.75;;
55368;SDS011;41247;49.736;8.752;2022-12-10T23:12:12;44.40;;;20.50;;
55368;SDS011;41247;49.736;8.752;2022-12-10T23:15:53;45.63;;;21.63;;
55368;SDS011;41247;49.736;8.752;2022-12-10T23:19:34;44.67;;;22.30;;
55368;SDS011;41247;49.736;8.752;2022-12-10T23:23:18;49.17;;;22.17;;
55368;SDS011;41247;49.736;8.752;2022-12-10T23:26:59;47.92;;;21.90;;
55368;SDS011;41247;49.736;8.752;2022-12-10T23:30:40;52.63;;;22.83;;
55368;SDS011;41247;49.736;8.752;2022-12-10T23:34:21;59.95;;;27.38;;
55368;SDS011;41247;49.736;8.752;2022-12-10T23:38:01;58.58;;;26.83;;
55368;SDS011;41247;49.736;8.752;2022-12-10T23:41:42;51.50;;;23.90;;
55368;SDS011;41247;49.736;8.752;2022-12-10T23:45:23;47.08;;;23.65;;
55368;SDS011;41247;49.736;8.752;2022-12-10T23:49:03;62.63;;;26.10;;
55368;SDS011;41247;49.736;8.752;2022-12-10T23:52:44;69.97;;;29.58;;
55368;SDS011;41247;49.736;8.752;2022-12-10T23:56:24;68.20;;;28.27;;
